sensor_id;sensor_type;location;lat;lon;timestamp;pressure;altitude;pressure_sealevel;temperature;humidity
34124;BME280;13153;52.316;21.166;2023-02-03T00:01:41;100722.53;;;5.87;60.74
34124;BME280;13153;52.316;21.166;2023-02-03T00:04:07;100730.72;;;5.93;59.70
34124;BME280;13153;52.316;21.166;2023-02-03T00:06:33;100725.50;;;5.93;59.58
34124;BME280;13153;52.316;21.166;2023-02-03T00:08:59;100722.72;;;5.90;58.85
34124;BME280;13153;52.316;21.166;2023-02-03T00:11:29;100726.78;;;5.85;59.05
34124;BME280;13153;52.316;21.166;2023-02-03T00:13:55;100716.03;;;5.79;59.25
34124;BME280;13153;52.316;21.166;2023-02-03T00:16:21;100721.88;;;5.74;58.60
34124;BME280;13153;52.316;21.166;2023-02-03T00:18:47;100725.81;;;5.66;58.72
34124;BME280;13153;52.316;21.166;2023-02-03T00:21:13;100715.06;;;5.59;58.92
34124;BME280;13153;52.316;21.166;2023-02-03T00:23:40;100719.38;;;5.59;59.27
34124;BME280;13153;52.316;21.166;2023-02-03T00:26:14;100714.16;;;5.59;59.32
34124;BME280;13153;52.316;21.166;2023-02-03T00:28:41;100721.75;;;5.54;59.20
34124;BME280;13153;52.316;21.166;2023-02-03T00:31:21;100718.91;;;5.50;59.28
34124;BME280;13153;52.316;21.166;2023-02-03T00:33:56;100718.97;;;5.51;59.18
34124;BME280;13153;52.316;21.166;2023-02-03T00:36:24;100711.88;;;5.49;59.09
34124;BME280;13153;52.316;21.166;2023-02-03T00:38:50;100723.22;;;5.49;59.62
34124;BME280;13153;52.316;21.166;2023-02-03T00:41:17;100722.31;;;5.49;59.49
34124;BME280;13153;52.316;21.166;2023-02-03T00:43:43;100723.38;;;5.52;59.58
34124;BME280;13153;52.316;21.166;2023-02-03T00:46:09;100720.69;;;5.51;59.17
34124;BME280;13153;52.316;21.166;2023-02-03T00:48:35;100717.19;;;5.50;59.26
34124;BME280;13153;52.316;21.166;2023-02-03T00:51:01;100716.19;;;5.48;59.39
34124;BME280;13153;52.316;21.166;2023-02-03T00:53:26;100724.69;;;5.44;59.41
34124;BME280;13153;52.316;21.166;2023-02-03T00:55:52;100724.59;;;5.43;59.28
34124;BME280;13153;52.316;21.166;2023-02-03T00:58:18;100727.06;;;5.40;59.35
34124;BME280;13153;52.316;21.166;2023-02-03T01:00:44;100729.59;;;5.38;59.34
34124;BME280;13153;52.316;21.166;2023-02-03T01:03:10;100721.44;;;5.32;59.39
34124;BME280;13153;52.316;21.166;2023-02-03T01:05:36;100731.06;;;5.33;59.16
34124;BME280;13153;52.316;21.166;2023-02-03T01:08:02;100730.88;;;5.30;58.67
34124;BME280;13153;52.316;21.166;2023-02-03T01:10:28;100728.03;;;5.25;58.97
34124;BME280;13153;52.316;21.166;2023-02-03T01:12:54;100727.94;;;5.24;58.95
34124;BME280;13153;52.316;21.166;2023-02-03T01:15:20;100737.41;;;5.22;59.24
34124;BME280;13153;52.316;21.166;2023-02-03T01:17:46;100745.25;;;5.22;59.03
34124;BME280;13153;52.316;21.166;2023-02-03T01:20:12;100740.78;;;5.19;59.28
34124;BME280;13153;52.316;21.166;2023-02-03T01:22:39;100747.63;;;5.17;59.15
34124;BME280;13153;52.316;21.166;2023-02-03T01:25:05;100741.44;;;5.15;59.14
34124;BME280;13153;52.316;21.166;2023-02-03T01:27:32;100741.34;;;5.14;59.22
34124;BME280;13153;52.316;21.166;2023-02-03T01:29:58;100742.09;;;5.11;59.23
34124;BME280;13153;52.316;21.166;2023-02-03T01:32:24;100744.53;;;5.08;59.21
34124;BME280;13153;52.316;21.166;2023-02-03T01:34:50;100738.34;;;5.06;58.99
34124;BME280;13153;52.316;21.166;2023-02-03T01:37:15;100742.66;;;5.06;59.14
34124;BME280;13153;52.316;21.166;2023-02-03T01:39:43;100753.72;;;5.02;59.13
34124;BME280;13153;52.316;21.166;2023-02-03T01:42:13;100751.75;;;4.97;58.66
34124;BME280;13153;52.316;21.166;2023-02-03T01:47:35;100748.00;;;4.92;58.28
34124;BME280;13153;52.316;21.166;2023-02-03T01:50:27;100750.53;;;4.91;58.47
34124;BME280;13153;52.316;21.166;2023-02-03T01:53:03;100744.50;;;4.92;57.92
34124;BME280;13153;52.316;21.166;2023-02-03T01:55:38;100735.88;;;4.93;57.57
34124;BME280;13153;52.316;21.166;2023-02-03T01:58:16;100735.78;;;4.91;57.44
34124;BME280;13153;52.316;21.166;2023-02-03T02:00:48;100739.63;;;4.98;57.02
34124;BME280;13153;52.316;21.166;2023-02-03T02:03:37;100740.78;;;5.03;56.70
34124;BME280;13153;52.316;21.166;2023-02-03T02:06:07;100739.47;;;5.11;56.72
34124;BME280;13153;52.316;21.166;2023-02-03T02:08:35;100740.63;;;5.16;56.83
34124;BME280;13153;52.316;21.166;2023-02-03T02:11:02;100733.84;;;5.20;56.62
34124;BME280;13153;52.316;21.166;2023-02-03T02:13:31;100724.44;;;5.23;56.45
34124;BME280;13153;52.316;21.166;2023-02-03T02:16:15;100724.69;;;5.28;56.02
34124;BME280;13153;52.316;21.166;2023-02-03T02:22:29;100715.16;;;5.28;56.33
34124;BME280;13153;52.316;21.166;2023-02-03T02:33:58;100702.47;;;5.18;56.41
34124;BME280;13153;52.316;21.166;2023-02-03T02:37:08;100703.38;;;5.19;56.65
34124;BME280;13153;52.316;21.166;2023-02-03T02:42:38;100696.94;;;5.12;56.48
34124;BME280;13153;52.316;21.166;2023-02-03T02:45:19;100687.00;;;5.05;57.03
34124;BME280;13153;52.316;21.166;2023-02-03T02:47:52;100686.25;;;5.08;57.20
34124;BME280;13153;52.316;21.166;2023-02-03T02:50:28;100683.47;;;5.05;57.12
34124;BME280;13153;52.316;21.166;2023-02-03T02:52:57;100691.88;;;4.99;56.66
34124;BME280;13153;52.316;21.166;2023-02-03T02:55:30;100694.31;;;4.96;57.09
34124;BME280;13153;52.316;21.166;2023-02-03T02:58:03;100689.03;;;4.94;56.95
34124;BME280;13153;52.316;21.166;2023-02-03T03:00:34;100691.38;;;4.90;57.01
34124;BME280;13153;52.316;21.166;2023-02-03T03:03:19;100706.94;;;4.88;56.87
34124;BME280;13153;52.316;21.166;2023-02-03T03:06:08;100711.19;;;4.86;56.47
34124;BME280;13153;52.316;21.166;2023-02-03T03:08:49;100710.28;;;4.86;56.47
34124;BME280;13153;52.316;21.166;2023-02-03T03:11:18;100711.81;;;4.82;56.61
34124;BME280;13153;52.316;21.166;2023-02-03T03:13:52;100712.56;;;4.80;56.56
34124;BME280;13153;52.316;21.166;2023-02-03T03:16:24;100702.84;;;4.77;56.43
34124;BME280;13153;52.316;21.166;2023-02-03T03:18:59;100704.38;;;4.74;56.23
34124;BME280;13153;52.316;21.166;2023-02-03T03:21:31;100701.63;;;4.71;56.42
34124;BME280;13153;52.316;21.166;2023-02-03T03:24:04;100700.63;;;4.69;57.04
34124;BME280;13153;52.316;21.166;2023-02-03T03:26:45;100696.41;;;4.71;56.70
34124;BME280;13153;52.316;21.166;2023-02-03T03:29:23;100705.84;;;4.69;56.56
34124;BME280;13153;52.316;21.166;2023-02-03T03:31:49;100709.19;;;4.66;56.33
34124;BME280;13153;52.316;21.166;2023-02-03T03:34:16;100702.09;;;4.63;56.86
34124;BME280;13153;52.316;21.166;2023-02-03T03:39:57;100702.09;;;4.63;56.53
34124;BME280;13153;52.316;21.166;2023-02-03T03:42:40;100695.25;;;4.65;56.91
34124;BME280;13153;52.316;21.166;2023-02-03T03:48:12;100694.13;;;4.60;57.04
34124;BME280;13153;52.316;21.166;2023-02-03T03:51:05;100688.03;;;4.60;56.86
34124;BME280;13153;52.316;21.166;2023-02-03T03:53:38;100691.63;;;4.62;56.93
34124;BME280;13153;52.316;21.166;2023-02-03T03:56:09;100689.75;;;4.59;56.67
34124;BME280;13153;52.316;21.166;2023-02-03T03:58:43;100693.16;;;4.58;56.87
34124;BME280;13153;52.316;21.166;2023-02-03T04:01:14;100693.97;;;4.57;57.11
34124;BME280;13153;52.316;21.166;2023-02-03T04:03:59;100701.78;;;4.57;56.89
34124;BME280;13153;52.316;21.166;2023-02-03T04:06:27;100694.59;;;4.53;56.70
34124;BME280;13153;52.316;21.166;2023-02-03T04:08:53;100697.13;;;4.52;57.37
34124;BME280;13153;52.316;21.166;2023-02-03T04:11:19;100695.25;;;4.49;57.18
34124;BME280;13153;52.316;21.166;2023-02-03T04:14:03;100696.88;;;4.47;56.89
34124;BME280;13153;52.316;21.166;2023-02-03T04:16:29;100695.09;;;4.46;57.35
34124;BME280;13153;52.316;21.166;2023-02-03T04:18:56;100699.31;;;4.44;56.98
34124;BME280;13153;52.316;21.166;2023-02-03T04:21:21;100694.75;;;4.40;57.39
34124;BME280;13153;52.316;21.166;2023-02-03T04:23:47;100696.34;;;4.38;57.36
34124;BME280;13153;52.316;21.166;2023-02-03T04:26:13;100698.88;;;4.37;57.74
34124;BME280;13153;52.316;21.166;2023-02-03T04:28:39;100699.59;;;4.34;57.05
34124;BME280;13153;52.316;21.166;2023-02-03T04:31:05;100683.06;;;4.34;57.22
34124;BME280;13153;52.316;21.166;2023-02-03T04:33:30;100693.50;;;4.34;57.81
34124;BME280;13153;52.316;21.166;2023-02-03T04:35:56;100699.59;;;4.34;57.50
34124;BME280;13153;52.316;21.166;2023-02-03T04:38:22;100691.53;;;4.29;57.28
34124;BME280;13153;52.316;21.166;2023-02-03T04:40:48;100693.06;;;4.26;57.42
34124;BME280;13153;52.316;21.166;2023-02-03T04:43:14;100701.84;;;4.28;57.71
34124;BME280;13153;52.316;21.166;2023-02-03T04:45:41;100698.28;;;4.26;58.00
34124;BME280;13153;52.316;21.166;2023-02-03T04:48:07;100694.50;;;4.21;57.88
34124;BME280;13153;52.316;21.166;2023-02-03T04:50:33;100698.91;;;4.22;58.09
34124;BME280;13153;52.316;21.166;2023-02-03T04:52:58;100701.59;;;4.23;57.51
34124;BME280;13153;52.316;21.166;2023-02-03T04:55:26;100698.28;;;4.26;57.63
34124;BME280;13153;52.316;21.166;2023-02-03T04:57:57;100698.28;;;4.26;58.17
34124;BME280;13153;52.316;21.166;2023-02-03T05:00:24;100692.88;;;4.23;58.12
34124;BME280;13153;52.316;21.166;2023-02-03T05:02:50;100687.69;;;4.23;58.05
34124;BME280;13153;52.316;21.166;2023-02-03T05:05:16;100676.28;;;4.21;58.29
34124;BME280;13153;52.316;21.166;2023-02-03T05:07:42;100673.69;;;4.21;57.72
34124;BME280;13153;52.316;21.166;2023-02-03T05:10:09;100672.59;;;4.17;57.47
34124;BME280;13153;52.316;21.166;2023-02-03T05:12:35;100674.06;;;4.12;57.84
34124;BME280;13153;52.316;21.166;2023-02-03T05:15:01;100670.63;;;4.13;58.06
34124;BME280;13153;52.316;21.166;2023-02-03T05:17:27;100666.31;;;4.14;57.85
34124;BME280;13153;52.316;21.166;2023-02-03T05:19:53;100670.63;;;4.13;58.11
34124;BME280;13153;52.316;21.166;2023-02-03T05:22:19;100667.13;;;4.13;58.35
34124;BME280;13153;52.316;21.166;2023-02-03T05:24:44;100661.94;;;4.13;57.78
34124;BME280;13153;52.316;21.166;2023-02-03T05:27:10;100667.94;;;4.12;58.02
34124;BME280;13153;52.316;21.166;2023-02-03T05:29:36;100660.94;;;4.11;58.45
34124;BME280;13153;52.316;21.166;2023-02-03T05:32:03;100659.97;;;4.09;57.95
34124;BME280;13153;52.316;21.166;2023-02-03T05:34:29;100665.97;;;4.08;57.48
34124;BME280;13153;52.316;21.166;2023-02-03T05:36:54;100671.19;;;4.08;57.79
34124;BME280;13153;52.316;21.166;2023-02-03T05:39:20;100667.78;;;4.09;57.68
34124;BME280;13153;52.316;21.166;2023-02-03T05:41:46;100662.47;;;4.07;58.21
34124;BME280;13153;52.316;21.166;2023-02-03T05:44:23;100654.59;;;4.06;57.47
34124;BME280;13153;52.316;21.166;2023-02-03T05:46:51;100662.34;;;4.04;57.64
34124;BME280;13153;52.316;21.166;2023-02-03T05:49:18;100658.84;;;4.04;58.00
34124;BME280;13153;52.316;21.166;2023-02-03T05:51:53;100662.97;;;4.00;57.81
34124;BME280;13153;52.316;21.166;2023-02-03T05:54:20;100662.25;;;4.03;57.93
34124;BME280;13153;52.316;21.166;2023-02-03T05:56:46;100654.59;;;4.06;57.56
34124;BME280;13153;52.316;21.166;2023-02-03T05:59:12;100658.84;;;4.04;58.36
34124;BME280;13153;52.316;21.166;2023-02-03T06:01:38;100658.97;;;4.07;58.49
34124;BME280;13153;52.316;21.166;2023-02-03T06:04:04;100662.38;;;4.06;58.04
34124;BME280;13153;52.316;21.166;2023-02-03T06:06:31;100653.69;;;4.05;58.47
34124;BME280;13153;52.316;21.166;2023-02-03T06:09:03;100660.84;;;4.09;57.55
34124;BME280;13153;52.316;21.166;2023-02-03T06:11:30;100649.72;;;4.12;57.76
34124;BME280;13153;52.316;21.166;2023-02-03T06:13:57;100655.00;;;4.13;58.19
34124;BME280;13153;52.316;21.166;2023-02-03T06:16:25;100646.22;;;4.11;57.79
34124;BME280;13153;52.316;21.166;2023-02-03T06:18:52;100641.28;;;4.16;58.25
34124;BME280;13153;52.316;21.166;2023-02-03T06:21:19;100630.94;;;4.17;58.24
34124;BME280;13153;52.316;21.166;2023-02-03T06:23:45;100641.53;;;4.20;58.47
34124;BME280;13153;52.316;21.166;2023-02-03T06:26:11;100625.09;;;4.21;58.12
34124;BME280;13153;52.316;21.166;2023-02-03T06:28:37;100621.59;;;4.21;58.20
34124;BME280;13153;52.316;21.166;2023-02-03T06:31:04;100620.41;;;4.30;58.69
34124;BME280;13153;52.316;21.166;2023-02-03T06:33:30;100624.09;;;4.50;58.81
34124;BME280;13153;52.316;21.166;2023-02-03T06:35:57;100619.03;;;4.70;58.23
34124;BME280;13153;52.316;21.166;2023-02-03T06:38:23;100617.47;;;4.89;57.45
34124;BME280;13153;52.316;21.166;2023-02-03T06:40:49;100612.75;;;4.98;57.13
34124;BME280;13153;52.316;21.166;2023-02-03T06:43:16;100612.09;;;5.03;56.61
34124;BME280;13153;52.316;21.166;2023-02-03T06:45:45;100605.34;;;5.06;56.83
34124;BME280;13153;52.316;21.166;2023-02-03T06:48:12;100608.03;;;5.08;56.33
34124;BME280;13153;52.316;21.166;2023-02-03T06:50:38;100599.38;;;5.09;56.62
34124;BME280;13153;52.316;21.166;2023-02-03T06:53:04;100591.63;;;5.10;56.18
34124;BME280;13153;52.316;21.166;2023-02-03T06:55:30;100590.81;;;5.11;56.04
34124;BME280;13153;52.316;21.166;2023-02-03T06:57:55;100586.66;;;5.15;56.40
34124;BME280;13153;52.316;21.166;2023-02-03T07:00:21;100584.13;;;5.16;56.22
34124;BME280;13153;52.316;21.166;2023-02-03T07:02:57;100583.16;;;5.14;56.35
34124;BME280;13153;52.316;21.166;2023-02-03T07:05:23;100580.47;;;5.13;56.21
34124;BME280;13153;52.316;21.166;2023-02-03T07:07:50;100575.19;;;5.11;56.14
34124;BME280;13153;52.316;21.166;2023-02-03T07:10:17;100570.94;;;5.13;56.07
34124;BME280;13153;52.316;21.166;2023-02-03T07:12:43;100573.84;;;5.19;56.39
34124;BME280;13153;52.316;21.166;2023-02-03T07:15:10;100564.34;;;5.21;56.39
34124;BME280;13153;52.316;21.166;2023-02-03T07:17:36;100556.84;;;5.27;56.38
34124;BME280;13153;52.316;21.166;2023-02-03T07:20:03;100555.44;;;5.34;55.90
34124;BME280;13153;52.316;21.166;2023-02-03T07:22:29;100543.53;;;5.39;55.83
34124;BME280;13153;52.316;21.166;2023-02-03T07:24:55;100540.69;;;5.52;55.59
34124;BME280;13153;52.316;21.166;2023-02-03T07:27:21;100543.97;;;5.66;55.48
34124;BME280;13153;52.316;21.166;2023-02-03T07:29:47;100536.03;;;5.82;55.34
34124;BME280;13153;52.316;21.166;2023-02-03T07:32:13;100533.88;;;6.09;54.76
34124;BME280;13153;52.316;21.166;2023-02-03T07:34:39;100531.75;;;6.39;54.59
34124;BME280;13153;52.316;21.166;2023-02-03T07:37:04;100522.25;;;6.60;53.10
34124;BME280;13153;52.316;21.166;2023-02-03T07:39:30;100526.50;;;6.78;53.35
34124;BME280;13153;52.316;21.166;2023-02-03T07:41:57;100521.69;;;7.08;53.20
34124;BME280;13153;52.316;21.166;2023-02-03T07:44:23;100520.31;;;7.37;52.39
34124;BME280;13153;52.316;21.166;2023-02-03T07:46:49;100507.47;;;7.65;51.62
34124;BME280;13153;52.316;21.166;2023-02-03T07:49:15;100505.00;;;7.90;50.93
34124;BME280;13153;52.316;21.166;2023-02-03T07:51:41;100504.47;;;7.99;50.80
34124;BME280;13153;52.316;21.166;2023-02-03T07:54:06;100492.91;;;7.94;50.26
34124;BME280;13153;52.316;21.166;2023-02-03T07:56:33;100485.59;;;7.85;49.98
34124;BME280;13153;52.316;21.166;2023-02-03T07:58:59;100490.13;;;7.89;49.91
34124;BME280;13153;52.316;21.166;2023-02-03T08:01:26;100481.66;;;7.97;50.73
34124;BME280;13153;52.316;21.166;2023-02-03T08:03:52;100472.50;;;8.09;49.61
34124;BME280;13153;52.316;21.166;2023-02-03T08:06:18;100475.34;;;8.15;49.68
34124;BME280;13153;52.316;21.166;2023-02-03T08:08:43;100482.22;;;8.12;49.51
34124;BME280;13153;52.316;21.166;2023-02-03T08:11:10;100478.03;;;8.17;48.70
34124;BME280;13153;52.316;21.166;2023-02-03T08:13:35;100476.00;;;8.10;49.01
34124;BME280;13153;52.316;21.166;2023-02-03T08:16:01;100470.56;;;8.04;48.61
34124;BME280;13153;52.316;21.166;2023-02-03T08:18:27;100463.81;;;8.10;49.11
34124;BME280;13153;52.316;21.166;2023-02-03T08:20:53;100463.53;;;8.26;49.33
34124;BME280;13153;52.316;21.166;2023-02-03T08:23:19;100459.47;;;8.33;48.38
34124;BME280;13153;52.316;21.166;2023-02-03T08:25:50;100461.94;;;8.30;48.38
34124;BME280;13153;52.316;21.166;2023-02-03T08:28:16;100456.22;;;8.18;48.03
34124;BME280;13153;52.316;21.166;2023-02-03T08:30:42;100453.50;;;8.15;47.71
34124;BME280;13153;52.316;21.166;2023-02-03T08:33:08;100454.69;;;7.99;48.37
34124;BME280;13153;52.316;21.166;2023-02-03T08:35:34;100451.06;;;7.95;48.20
34124;BME280;13153;52.316;21.166;2023-02-03T08:38:00;100442.97;;;7.89;48.61
34124;BME280;13153;52.316;21.166;2023-02-03T08:40:25;100436.78;;;7.87;48.55
34124;BME280;13153;52.316;21.166;2023-02-03T08:42:52;100435.34;;;7.73;49.15
34124;BME280;13153;52.316;21.166;2023-02-03T08:45:18;100426.72;;;7.76;48.81
34124;BME280;13153;52.316;21.166;2023-02-03T08:47:43;100424.28;;;7.80;49.28
34124;BME280;13153;52.316;21.166;2023-02-03T08:50:10;100420.94;;;7.84;48.51
34124;BME280;13153;52.316;21.166;2023-02-03T08:52:36;100422.59;;;7.82;48.42
34124;BME280;13153;52.316;21.166;2023-02-03T08:55:02;100413.13;;;7.86;48.33
34124;BME280;13153;52.316;21.166;2023-02-03T08:57:35;100403.59;;;7.88;48.40
34124;BME280;13153;52.316;21.166;2023-02-03T09:00:03;100392.94;;;7.83;48.52
34124;BME280;13153;52.316;21.166;2023-02-03T09:02:29;100391.16;;;7.82;48.28
34124;BME280;13153;52.316;21.166;2023-02-03T09:04:55;100385.81;;;7.79;48.76
34124;BME280;13153;52.316;21.166;2023-02-03T09:07:21;100381.84;;;7.67;48.98
34124;BME280;13153;52.316;21.166;2023-02-03T09:09:46;100383.22;;;7.57;49.25
34124;BME280;13153;52.316;21.166;2023-02-03T09:12:12;100372.75;;;7.57;48.53
34124;BME280;13153;52.316;21.166;2023-02-03T09:14:38;100366.84;;;7.62;48.12
34124;BME280;13153;52.316;21.166;2023-02-03T09:17:05;100363.16;;;7.57;49.08
34124;BME280;13153;52.316;21.166;2023-02-03T09:19:32;100357.59;;;7.72;48.69
34124;BME280;13153;52.316;21.166;2023-02-03T09:21:58;100353.44;;;7.77;48.25
34124;BME280;13153;52.316;21.166;2023-02-03T09:24:24;100349.44;;;7.87;48.12
34124;BME280;13153;52.316;21.166;2023-02-03T09:26:50;100345.91;;;7.86;48.42
34124;BME280;13153;52.316;21.166;2023-02-03T09:29:16;100340.78;;;7.89;47.62
34124;BME280;13153;52.316;21.166;2023-02-03T09:31:42;100336.34;;;7.87;47.67
34124;BME280;13153;52.316;21.166;2023-02-03T09:34:08;100334.56;;;7.86;47.20
34124;BME280;13153;52.316;21.166;2023-02-03T09:36:34;100328.53;;;7.88;47.87
34124;BME280;13153;52.316;21.166;2023-02-03T09:39:00;100325.03;;;7.88;47.14
34124;BME280;13153;52.316;21.166;2023-02-03T09:44:15;100310.31;;;7.91;47.90
34124;BME280;13153;52.316;21.166;2023-02-03T09:46:58;100308.53;;;7.90;47.70
34124;BME280;13153;52.316;21.166;2023-02-03T09:52:28;100312.38;;;7.76;47.03
34124;BME280;13153;52.316;21.166;2023-02-03T09:58:15;100275.88;;;7.57;46.07
34124;BME280;13153;52.316;21.166;2023-02-03T10:01:06;100269.09;;;7.38;46.66
34124;BME280;13153;52.316;21.166;2023-02-03T10:04:33;100264.44;;;7.55;46.90
34124;BME280;13153;52.316;21.166;2023-02-03T10:06:45;100260.09;;;7.55;46.68
34124;BME280;13153;52.316;21.166;2023-02-03T10:09:33;100255.53;;;7.74;46.21
34124;BME280;13153;52.316;21.166;2023-02-03T10:12:50;100236.81;;;7.63;46.62
34124;BME280;13153;52.316;21.166;2023-02-03T10:15:51;100232.03;;;7.75;46.03
34124;BME280;13153;52.316;21.166;2023-02-03T10:18:45;100225.13;;;7.53;45.00
34124;BME280;13153;52.316;21.166;2023-02-03T10:21:39;100221.84;;;7.59;45.00
34124;BME280;13153;52.316;21.166;2023-02-03T10:24:35;100212.75;;;7.48;45.25
34124;BME280;13153;52.316;21.166;2023-02-03T10:27:03;100203.09;;;7.47;44.95
34124;BME280;13153;52.316;21.166;2023-02-03T10:29:37;100210.38;;;7.55;44.74
34124;BME280;13153;52.316;21.166;2023-02-03T10:32:13;100194.59;;;7.54;43.86
34124;BME280;13153;52.316;21.166;2023-02-03T10:34:43;100188.06;;;7.41;44.25
34124;BME280;13153;52.316;21.166;2023-02-03T10:37:44;100182.28;;;7.26;44.51
34124;BME280;13153;52.316;21.166;2023-02-03T10:40:14;100173.31;;;7.43;44.89
34124;BME280;13153;52.316;21.166;2023-02-03T10:42:43;100173.16;;;7.39;44.18
34124;BME280;13153;52.316;21.166;2023-02-03T10:45:36;100164.50;;;7.41;43.73
34124;BME280;13153;52.316;21.166;2023-02-03T10:48:05;100147.91;;;7.41;43.83
34124;BME280;13153;52.316;21.166;2023-02-03T10:50:37;100140.34;;;7.48;44.20
34124;BME280;13153;52.316;21.166;2023-02-03T10:53:24;100132.94;;;7.37;42.95
34124;BME280;13153;52.316;21.166;2023-02-03T10:56:02;100121.94;;;6.97;44.01
34124;BME280;13153;52.316;21.166;2023-02-03T10:58:31;100120.16;;;6.96;43.96
34124;BME280;13153;52.316;21.166;2023-02-03T11:01:15;100112.06;;;6.89;43.55
34124;BME280;13153;52.316;21.166;2023-02-03T11:03:52;100099.94;;;6.91;43.48
34124;BME280;13153;52.316;21.166;2023-02-03T11:06:19;100085.31;;;6.97;44.31
34124;BME280;13153;52.316;21.166;2023-02-03T11:08:48;100068.53;;;7.16;44.17
34124;BME280;13153;52.316;21.166;2023-02-03T11:11:27;100061.81;;;6.99;43.85
34124;BME280;13153;52.316;21.166;2023-02-03T11:16:28;100037.16;;;7.16;44.40
34124;BME280;13153;52.316;21.166;2023-02-03T11:24:26;100020.31;;;7.34;44.45
34124;BME280;13153;52.316;21.166;2023-02-03T11:27:04;100016.78;;;7.33;44.09
34124;BME280;13153;52.316;21.166;2023-02-03T11:29:37;100008.44;;;6.92;44.30
34124;BME280;13153;52.316;21.166;2023-02-03T11:32:35;99994.78;;;6.76;44.53
34124;BME280;13153;52.316;21.166;2023-02-03T11:35:22;99985.88;;;6.71;44.67
34124;BME280;13153;52.316;21.166;2023-02-03T11:37:53;99986.53;;;6.89;44.67
34124;BME280;13153;52.316;21.166;2023-02-03T11:40:31;99972.94;;;7.01;44.41
34124;BME280;13153;52.316;21.166;2023-02-03T11:43:16;99956.69;;;7.09;44.29
34124;BME280;13153;52.316;21.166;2023-02-03T11:45:50;99955.47;;;6.73;44.43
34124;BME280;13153;52.316;21.166;2023-02-03T11:48:25;99949.38;;;6.74;44.75
34124;BME280;13153;52.316;21.166;2023-02-03T11:51:36;99936.63;;;6.57;45.03
34124;BME280;13153;52.316;21.166;2023-02-03T12:00:33;99922.22;;;6.45;44.52
34124;BME280;13153;52.316;21.166;2023-02-03T12:17:42;99868.63;;;6.31;45.44
34124;BME280;13153;52.316;21.166;2023-02-03T12:20:28;99848.91;;;6.15;45.20
34124;BME280;13153;52.316;21.166;2023-02-03T12:25:59;99849.13;;;6.46;45.19
34124;BME280;13153;52.316;21.166;2023-02-03T12:36:49;99830.19;;;6.53;45.51
34124;BME280;13153;52.316;21.166;2023-02-03T12:39:30;99821.81;;;6.63;44.84
34124;BME280;13153;52.316;21.166;2023-02-03T12:42:38;99819.63;;;6.50;44.87
34124;BME280;13153;52.316;21.166;2023-02-03T12:45:16;99812.16;;;6.34;45.37
34124;BME280;13153;52.316;21.166;2023-02-03T12:58:49;99766.28;;;6.17;45.37
34124;BME280;13153;52.316;21.166;2023-02-03T13:01:39;99753.47;;;6.24;45.46
34124;BME280;13153;52.316;21.166;2023-02-03T13:04:42;99741.16;;;6.20;45.26
34124;BME280;13153;52.316;21.166;2023-02-03T13:07:46;99737.84;;;6.26;45.57
34124;BME280;13153;52.316;21.166;2023-02-03T13:10:26;99717.38;;;6.40;45.44
34124;BME280;13153;52.316;21.166;2023-02-03T13:12:58;99724.13;;;6.32;45.99
34124;BME280;13153;52.316;21.166;2023-02-03T13:15:34;99710.31;;;6.37;46.19
34124;BME280;13153;52.316;21.166;2023-02-03T13:18:23;99695.72;;;6.15;45.72
34124;BME280;13153;52.316;21.166;2023-02-03T13:20:52;99692.94;;;6.11;45.95
34124;BME280;13153;52.316;21.166;2023-02-03T13:23:20;99671.94;;;6.08;45.62
34124;BME280;13153;52.316;21.166;2023-02-03T13:29:05;99670.16;;;5.81;45.99
34124;BME280;13153;52.316;21.166;2023-02-03T13:38:06;99656.09;;;5.76;46.62
34124;BME280;13153;52.316;21.166;2023-02-03T13:43:47;99623.84;;;5.74;47.17
34124;BME280;13153;52.316;21.166;2023-02-03T13:46:30;99619.78;;;5.84;47.04
34124;BME280;13153;52.316;21.166;2023-02-03T13:49:01;99611.78;;;5.79;48.17
34124;BME280;13153;52.316;21.166;2023-02-03T13:51:42;99605.06;;;5.86;48.05
34124;BME280;13153;52.316;21.166;2023-02-03T13:54:26;99609.75;;;5.69;50.14
34124;BME280;13153;52.316;21.166;2023-02-03T13:57:05;99596.19;;;5.54;51.65
34124;BME280;13153;52.316;21.166;2023-02-03T13:59:44;99605.38;;;5.43;52.84
34124;BME280;13153;52.316;21.166;2023-02-03T14:04:56;99576.56;;;5.40;53.76
34124;BME280;13153;52.316;21.166;2023-02-03T14:07:41;99571.78;;;5.26;54.27
34124;BME280;13153;52.316;21.166;2023-02-03T14:18:05;99552.22;;;4.88;57.05
34124;BME280;13153;52.316;21.166;2023-02-03T14:20:55;99548.66;;;4.86;57.36
34124;BME280;13153;52.316;21.166;2023-02-03T14:23:36;99547.81;;;4.87;57.61
34124;BME280;13153;52.316;21.166;2023-02-03T14:26:04;99542.78;;;4.68;58.54
34124;BME280;13153;52.316;21.166;2023-02-03T14:28:41;99541.72;;;4.87;58.47
34124;BME280;13153;52.316;21.166;2023-02-03T14:31:20;99535.47;;;4.82;58.08
34124;BME280;13153;52.316;21.166;2023-02-03T14:34:34;99534.56;;;4.81;58.83
34124;BME280;13153;52.316;21.166;2023-02-03T14:37:28;99526.66;;;4.78;59.48
34124;BME280;13153;52.316;21.166;2023-02-03T14:49:14;99518.97;;;4.57;61.08
34124;BME280;13153;52.316;21.166;2023-02-03T14:52:17;99504.69;;;4.46;61.63
34124;BME280;13153;52.316;21.166;2023-02-03T14:57:50;99502.47;;;4.57;61.56
34124;BME280;13153;52.316;21.166;2023-02-03T15:05:51;99482.78;;;4.41;62.52
34124;BME280;13153;52.316;21.166;2023-02-03T15:08:40;99485.72;;;4.50;62.76
34124;BME280;13153;52.316;21.166;2023-02-03T15:11:31;99482.41;;;4.54;62.30
34124;BME280;13153;52.316;21.166;2023-02-03T15:14:20;99482.72;;;4.40;62.15
34124;BME280;13153;52.316;21.166;2023-02-03T15:17:01;99479.03;;;4.33;62.97
34124;BME280;13153;52.316;21.166;2023-02-03T15:19:39;99468.72;;;4.36;62.86
34124;BME280;13153;52.316;21.166;2023-02-03T15:22:24;99468.16;;;4.45;62.68
34124;BME280;13153;52.316;21.166;2023-02-03T15:25:02;99462.84;;;4.18;63.42